createdAt,value
2019-04-06T00:06:06.486Z,7.20
2019-04-06T00:10:55.087Z,7.20
2019-04-06T00:15:39.745Z,7.10
2019-04-06T00:20:24.338Z,7.00
2019-04-06T00:25:10.364Z,6.90
2019-04-06T00:29:55.199Z,6.80
2019-04-06T00:34:40.281Z,6.90
2019-04-06T00:39:25.100Z,7.20
2019-04-06T00:44:10.259Z,7.60
2019-04-06T00:48:54.963Z,7.80
2019-04-06T00:53:39.629Z,7.60
2019-04-06T00:58:24.446Z,7.70
2019-04-06T01:03:09.265Z,8.10
2019-04-06T01:07:54.153Z,8.40
2019-04-06T01:12:38.881Z,8.40
2019-04-06T01:17:24.011Z,8.30
2019-04-06T01:22:08.847Z,8.00
2019-04-06T01:26:53.936Z,7.70
2019-04-06T01:31:38.671Z,7.40
2019-04-06T01:36:23.490Z,7.30
2019-04-06T01:41:08.293Z,7.20
2019-04-06T01:45:53.133Z,7.00
2019-04-06T01:50:38.170Z,7.20
2019-04-06T01:55:22.902Z,7.40
2019-04-06T02:00:10.584Z,7.40
2019-04-06T02:04:55.436Z,7.30
2019-04-06T02:09:40.409Z,7.30
2019-04-06T02:14:25.268Z,7.20
2019-04-06T02:19:10.045Z,7.10
2019-04-06T02:23:54.727Z,7.00
2019-04-06T02:28:39.654Z,6.90
2019-04-06T02:33:31.074Z,7.00
2019-04-06T02:38:25.495Z,7.30
2019-04-06T02:43:13.847Z,7.50
2019-04-06T02:47:58.709Z,7.90
2019-04-06T02:52:43.608Z,8.00
2019-04-06T02:57:28.357Z,7.90
2019-04-06T03:02:13.365Z,7.60
2019-04-06T03:06:58.344Z,7.30
2019-04-06T03:11:43.389Z,7.20
2019-04-06T03:16:28.066Z,7.30
2019-04-06T03:21:13.113Z,7.10
2019-04-06T03:25:57.991Z,6.90
2019-04-06T03:30:42.810Z,6.80
2019-04-06T03:35:30.957Z,6.60
2019-04-06T03:40:15.728Z,6.40
2019-04-06T03:45:00.523Z,6.50
2019-04-06T03:49:45.382Z,6.80
2019-04-06T03:54:30.350Z,7.00
2019-04-06T03:59:15.192Z,7.00
2019-04-06T04:03:59.893Z,7.10
2019-04-06T04:08:44.663Z,7.10
2019-04-06T04:13:29.667Z,7.20
2019-04-06T04:18:14.546Z,7.30
2019-04-06T04:22:59.312Z,7.20
2019-04-06T04:27:44.164Z,6.90
2019-04-06T04:32:29.179Z,6.70
2019-04-06T04:37:14.118Z,6.40
2019-04-06T04:41:59.170Z,6.30
2019-04-06T04:46:43.926Z,6.10
2019-04-06T04:51:28.580Z,6.00
2019-04-06T04:56:13.483Z,5.90
2019-04-06T05:00:58.234Z,5.90
2019-04-06T05:05:43.157Z,5.90
2019-04-06T05:10:27.847Z,6.00
2019-04-06T05:15:13.939Z,6.00
2019-04-06T05:19:59.012Z,6.30
2019-04-06T05:24:43.798Z,6.60
2019-04-06T05:29:28.519Z,6.90
2019-04-06T05:34:13.423Z,7.40
2019-04-06T05:38:58.199Z,7.80
2019-04-06T05:43:43.229Z,8.30
2019-04-06T05:48:28.234Z,8.70
2019-04-06T05:53:13.173Z,9.00
2019-04-06T05:58:03.904Z,9.20
2019-04-06T06:02:44.410Z,9.30
2019-04-06T16:34:32.234Z,19.00
2019-04-06T16:40:14.080Z,18.60
2019-04-06T19:48:50.634Z,10.80
2019-04-06T21:11:23.380Z,10.10
2019-04-06T21:16:10.215Z,9.90
2019-04-06T21:20:58.651Z,9.80
2019-04-06T21:25:50.809Z,9.70
2019-04-06T21:30:39.159Z,9.60
2019-04-06T21:35:25.206Z,9.50
2019-04-06T21:40:14.709Z,9.50
2019-04-06T21:45:01.490Z,9.40
2019-04-06T21:50:20.545Z,9.30
2019-04-06T21:55:22.230Z,9.40
2019-04-06T22:00:13.920Z,9.40
2019-04-06T22:05:06.912Z,9.30
2019-04-06T22:09:58.181Z,9.20
2019-04-06T22:14:48.993Z,9.00
2019-04-06T22:19:40.883Z,8.60
2019-04-06T22:24:28.244Z,8.20
2019-04-06T22:29:14.003Z,8.00
2019-04-06T22:34:01.784Z,7.70
2019-04-06T22:38:49.490Z,7.40
2019-04-06T22:43:44.873Z,7.30
2019-04-06T22:48:31.046Z,7.10
2019-04-06T22:53:18.715Z,6.90
2019-04-06T22:58:26.952Z,6.80
2019-04-06T23:03:28.538Z,6.60
2019-04-06T23:08:17.598Z,6.50
2019-04-06T23:13:26.034Z,6.50
2019-04-06T23:18:01.834Z,6.40
2019-04-06T23:22:47.753Z,6.30
2019-04-06T23:27:43.313Z,6.20
2019-04-06T23:32:32.264Z,6.10
2019-04-06T23:37:23.309Z,6.10
2019-04-06T23:42:12.346Z,6.10
2019-04-06T23:46:58.769Z,6.10
2019-04-06T23:56:55.074Z,6.00
